Terminal Aerodrome Forecast
Issued by NWS Jackson, MS

Home | Current Version | Previous Version | Text Only | Print | Product List | Glossary On
Versions: 1 2 3 4 5 6 7 8 9 10 11 12 13 14
000
FTUS44 KMEG 232329
TAFTUP
TAF
KTUP 232329Z 2400/2424 15011KT P6SM FEW050
     FM240600 18013G19KT P6SM OVC015
     FM241800 19016G23KT P6SM OVC050=

USA.gov is the U.S. government's official web portal to all federal, state and local government web resources and services.